createdAt,value
2023-01-07T00:00:35.136Z,10.76
2023-01-07T00:03:37.258Z,10.82
2023-01-07T00:06:40.680Z,10.79
2023-01-07T00:09:42.082Z,10.85
2023-01-07T00:12:43.613Z,10.84
2023-01-07T00:15:44.996Z,10.71
2023-01-07T00:18:46.920Z,10.75
2023-01-07T00:21:48.344Z,10.84
2023-01-07T00:24:49.819Z,10.88
2023-01-07T00:27:52.250Z,10.90
2023-01-07T00:31:02.656Z,10.94
2023-01-07T00:34:04.486Z,10.93
2023-01-07T00:37:37.887Z,10.95
2023-01-07T00:40:39.336Z,10.90
2023-01-07T00:43:40.765Z,10.83
2023-01-07T00:46:42.381Z,10.82
2023-01-07T00:49:44.123Z,10.88
2023-01-07T00:52:45.687Z,10.84
2023-01-07T00:55:51.524Z,10.83
2023-01-07T00:58:53.779Z,10.90
2023-01-07T01:01:55.841Z,10.88
2023-01-07T01:04:59.354Z,10.71
2023-01-07T01:08:00.788Z,10.66
2023-01-07T01:11:04.090Z,10.73
2023-01-07T01:14:05.529Z,10.68
2023-01-07T01:17:07.122Z,10.81
2023-01-07T01:20:12.425Z,10.69
2023-01-07T01:23:13.864Z,10.70
2023-01-07T01:26:16.774Z,10.78
2023-01-07T01:29:18.884Z,10.72
2023-01-07T01:32:20.847Z,10.69
2023-01-07T01:35:22.258Z,10.69
2023-01-07T01:38:25.058Z,10.78
2023-01-07T01:41:27.166Z,10.71
2023-01-07T01:44:43.857Z,10.62
2023-01-07T01:47:55.880Z,10.66
2023-01-07T01:50:59.970Z,10.71
2023-01-07T01:54:08.717Z,10.65
2023-01-07T01:57:10.571Z,10.70
2023-01-07T02:00:16.440Z,10.76
2023-01-07T02:03:26.860Z,10.56
2023-01-07T02:06:32.258Z,10.61
2023-01-07T02:09:33.900Z,10.64
2023-01-07T02:13:13.039Z,10.57
2023-01-07T02:16:36.855Z,10.54
2023-01-07T02:20:08.686Z,10.60
2023-01-07T02:23:38.266Z,10.47
2023-01-07T02:27:16.853Z,10.50
2023-01-07T02:30:27.926Z,10.57
2023-01-07T02:33:50.205Z,10.63
2023-01-07T02:37:05.302Z,10.56
2023-01-07T02:40:27.815Z,10.47
2023-01-07T02:43:55.068Z,10.48
2023-01-07T02:47:11.984Z,10.51
2023-01-07T02:50:13.659Z,10.55
2023-01-07T02:53:19.409Z,10.56
2023-01-07T02:56:32.659Z,10.48
2023-01-07T03:00:02.625Z,10.44
2023-01-07T03:03:14.830Z,10.52
2023-01-07T03:06:49.333Z,10.47
2023-01-07T03:09:57.194Z,10.49
2023-01-07T03:13:04.715Z,10.51
2023-01-07T03:16:14.801Z,10.09
2023-01-07T03:19:22.880Z,10.34
2023-01-07T03:22:27.887Z,10.34
2023-01-07T03:25:35.395Z,10.41
2023-01-07T03:28:41.504Z,10.36
2023-01-07T03:31:53.317Z,10.42
2023-01-07T03:34:55.088Z,10.23
2023-01-07T03:38:00.319Z,10.43
2023-01-07T03:41:02.415Z,10.24
2023-01-07T03:44:04.120Z,9.99
2023-01-07T03:47:06.619Z,10.24
2023-01-07T03:50:08.604Z,10.26
2023-01-07T03:53:12.121Z,10.32
2023-01-07T03:56:13.723Z,10.27
2023-01-07T03:59:15.956Z,10.33
2023-01-07T04:02:17.508Z,10.44
2023-01-07T04:05:19.563Z,10.35
2023-01-07T04:08:22.095Z,10.29
2023-01-07T04:11:23.971Z,10.38
2023-01-07T04:14:25.765Z,10.33
2023-01-07T04:17:27.566Z,10.22
2023-01-07T04:20:29.161Z,10.27
2023-01-07T04:23:30.613Z,10.33
2023-01-07T04:26:33.786Z,10.46
2023-01-07T04:29:35.571Z,10.35
2023-01-07T04:32:37.651Z,10.33
2023-01-07T04:35:40.160Z,10.42
2023-01-07T04:38:42.054Z,10.28
2023-01-07T04:41:44.507Z,10.27
2023-01-07T04:44:46.187Z,10.12
2023-01-07T04:47:47.616Z,10.25
2023-01-07T04:50:49.621Z,10.14
2023-01-07T04:53:52.614Z,10.22
2023-01-07T04:56:54.231Z,10.29
2023-01-07T04:59:56.261Z,10.36
2023-01-07T05:02:57.872Z,10.21
2023-01-07T05:06:01.208Z,10.28
2023-01-07T05:09:03.020Z,10.35
2023-01-07T05:12:06.320Z,10.43
2023-01-07T05:15:09.282Z,10.24
2023-01-07T05:18:13.723Z,10.06
2023-01-07T05:21:15.597Z,10.16
2023-01-07T05:24:18.258Z,10.23
2023-01-07T05:27:20.384Z,10.24
2023-01-07T05:30:21.983Z,10.33
2023-01-07T05:33:23.561Z,10.26
2023-01-07T05:36:25.004Z,10.24
2023-01-07T05:39:28.017Z,10.08
2023-01-07T05:42:29.663Z,10.27
2023-01-07T05:45:31.297Z,10.07
2023-01-07T05:48:32.728Z,10.26
2023-01-07T05:51:34.754Z,10.32
2023-01-07T05:54:36.163Z,10.16
2023-01-07T05:57:37.599Z,10.26
2023-01-07T06:00:39.140Z,10.27
2023-01-07T06:03:40.667Z,10.26
2023-01-07T06:06:42.113Z,10.32
2023-01-07T06:09:43.531Z,10.23
2023-01-07T06:12:44.927Z,10.25
2023-01-07T06:15:46.450Z,10.18
2023-01-07T06:18:47.858Z,9.95
2023-01-07T06:21:49.881Z,10.25
2023-01-07T06:24:51.316Z,10.21
2023-01-07T06:27:52.692Z,10.11
2023-01-07T06:30:54.156Z,10.10
2023-01-07T06:33:55.605Z,10.17
2023-01-07T06:36:57.225Z,10.27
2023-01-07T06:39:58.685Z,10.16
2023-01-07T06:43:00.150Z,10.21
2023-01-07T06:46:01.617Z,10.12
2023-01-07T06:49:03.546Z,10.19
2023-01-07T06:52:04.932Z,10.14
2023-01-07T06:55:06.659Z,10.17
2023-01-07T06:58:08.082Z,10.04
2023-01-07T07:01:09.681Z,10.02
2023-01-07T07:04:11.204Z,10.11
2023-01-07T07:07:12.614Z,10.24
2023-01-07T07:10:14.292Z,10.10
2023-01-07T07:13:15.703Z,10.16
2023-01-07T07:16:17.280Z,10.04
2023-01-07T07:19:18.709Z,10.09
2023-01-07T07:22:20.244Z,10.07
2023-01-07T07:25:21.650Z,9.89
2023-01-07T07:28:23.054Z,10.18
2023-01-07T07:31:24.539Z,10.22
2023-01-07T07:34:26.056Z,10.07
2023-01-07T07:37:27.454Z,9.99
2023-01-07T07:40:28.839Z,10.08
2023-01-07T07:43:30.270Z,10.13
2023-01-07T07:46:32.030Z,9.82
2023-01-07T07:49:33.497Z,10.09
2023-01-07T07:52:35.365Z,10.16
2023-01-07T07:55:38.073Z,10.22
2023-01-07T07:58:39.479Z,10.35
2023-01-07T08:01:41.043Z,10.27
2023-01-07T08:04:42.626Z,10.15
2023-01-07T08:07:44.036Z,10.06
2023-01-07T08:10:45.460Z,9.83
2023-01-07T08:13:46.860Z,9.91
2023-01-07T08:16:48.302Z,9.87
2023-01-07T08:19:49.725Z,9.72
2023-01-07T08:22:51.353Z,9.98
2023-01-07T08:25:52.800Z,9.98
2023-01-07T08:28:54.295Z,10.06
2023-01-07T08:31:55.732Z,10.10
2023-01-07T08:34:57.654Z,10.08
2023-01-07T08:38:04.571Z,10.23
2023-01-07T08:41:05.970Z,10.06
2023-01-07T08:44:07.496Z,10.22
2023-01-07T08:47:08.968Z,10.28
2023-01-07T08:50:10.358Z,10.10
2023-01-07T08:53:11.735Z,10.25
2023-01-07T08:56:13.269Z,10.16
2023-01-07T08:59:14.644Z,10.12
2023-01-07T09:02:18.530Z,10.25
2023-01-07T09:05:20.050Z,10.51
2023-01-07T09:08:21.508Z,10.45
2023-01-07T09:11:23.384Z,10.57
2023-01-07T09:14:24.871Z,10.36
2023-01-07T09:17:26.303Z,10.69
2023-01-07T09:20:27.679Z,10.88
2023-01-07T09:23:29.127Z,10.97
2023-01-07T09:26:30.559Z,10.88
2023-01-07T09:29:32.120Z,10.97
2023-01-07T09:32:33.524Z,10.96
2023-01-07T09:35:34.962Z,10.80
2023-01-07T09:38:36.612Z,11.06
2023-01-07T09:41:47.021Z,11.03
2023-01-07T09:45:03.951Z,10.94
2023-01-07T09:48:16.167Z,10.88
2023-01-07T09:51:38.270Z,10.86
2023-01-07T09:54:40.762Z,10.84
2023-01-07T09:57:42.192Z,10.93
2023-01-07T10:01:15.684Z,11.00
2023-01-07T10:04:37.549Z,11.09
2023-01-07T10:07:43.423Z,11.20
2023-01-07T10:11:17.530Z,11.21
2023-01-07T10:14:48.463Z,11.40
2023-01-07T10:18:18.668Z,11.46
2023-01-07T10:21:33.998Z,11.85
2023-01-07T10:24:40.805Z,12.76
2023-01-07T10:27:46.190Z,13.05
2023-01-07T10:30:53.161Z,13.04
2023-01-07T10:33:57.164Z,13.49
2023-01-07T10:37:17.071Z,13.79
2023-01-07T10:40:47.869Z,13.30
2023-01-07T10:44:06.902Z,13.39
2023-01-07T10:47:17.493Z,13.20
2023-01-07T10:50:43.510Z,12.95
2023-01-07T10:54:04.089Z,13.19
2023-01-07T10:57:15.089Z,12.24
2023-01-07T11:00:18.291Z,12.17
2023-01-07T11:03:22.435Z,12.69
2023-01-07T11:06:40.739Z,12.36
2023-01-07T11:09:45.884Z,12.32
2023-01-07T11:12:53.113Z,12.91
2023-01-07T11:16:37.173Z,12.88
2023-01-07T11:19:49.005Z,12.96
2023-01-07T11:22:50.420Z,12.62
2023-01-07T11:25:52.534Z,13.15
2023-01-07T11:29:13.834Z,13.47
2023-01-07T11:32:27.528Z,13.41
2023-01-07T11:35:29.533Z,13.64
2023-01-07T11:38:33.276Z,13.39
2023-01-07T11:41:34.701Z,13.10
2023-01-07T11:44:36.104Z,13.49
2023-01-07T11:47:39.798Z,13.14
2023-01-07T11:50:44.341Z,13.51
2023-01-07T11:53:52.177Z,13.85
2023-01-07T11:57:11.091Z,13.94
2023-01-07T12:00:17.383Z,14.11
2023-01-07T12:03:20.517Z,14.21
2023-01-07T12:06:32.649Z,14.07
2023-01-07T12:09:36.253Z,13.91
2023-01-07T12:12:43.814Z,13.54
2023-01-07T12:16:04.264Z,13.66
2023-01-07T12:19:31.341Z,13.77
2023-01-07T12:23:16.041Z,13.46
2023-01-07T12:26:22.643Z,13.71
2023-01-07T12:29:57.987Z,13.52
2023-01-07T12:33:27.045Z,13.68
2023-01-07T12:36:42.360Z,13.92
2023-01-07T12:39:45.231Z,13.67
2023-01-07T12:42:59.319Z,13.79
2023-01-07T12:46:04.159Z,14.38
2023-01-07T12:49:35.840Z,13.90
2023-01-07T12:52:44.058Z,13.91
2023-01-07T12:55:49.963Z,13.84
2023-01-07T12:59:45.909Z,13.47
2023-01-07T13:02:58.269Z,13.37
2023-01-07T13:06:06.818Z,13.30
2023-01-07T13:09:51.152Z,13.53
2023-01-07T13:12:58.266Z,13.45
2023-01-07T13:16:00.152Z,13.51
2023-01-07T13:19:01.646Z,13.48
2023-01-07T13:22:03.780Z,13.26
2023-01-07T13:25:12.034Z,13.47
2023-01-07T13:28:36.030Z,13.11
2023-01-07T13:31:49.347Z,13.45
2023-01-07T13:35:43.816Z,13.34
2023-01-07T13:39:13.292Z,13.48
2023-01-07T13:42:48.939Z,13.11
2023-01-07T13:45:59.997Z,13.05
2023-01-07T13:49:01.664Z,12.88
2023-01-07T13:52:16.450Z,13.15
2023-01-07T13:55:56.538Z,13.17
2023-01-07T13:58:58.743Z,13.35
2023-01-07T14:02:17.158Z,13.51
2023-01-07T14:05:18.719Z,13.56
2023-01-07T14:08:28.234Z,13.53
2023-01-07T14:11:29.590Z,13.36
2023-01-07T14:15:02.520Z,13.37
2023-01-07T14:18:25.150Z,13.42
2023-01-07T14:21:33.817Z,13.17
2023-01-07T14:25:02.524Z,13.38
2023-01-07T14:28:13.095Z,13.17
2023-01-07T14:31:24.488Z,13.28
2023-01-07T14:34:26.710Z,13.21
2023-01-07T14:37:39.448Z,13.26
2023-01-07T14:40:40.984Z,13.30
2023-01-07T14:43:48.419Z,12.87
2023-01-07T14:46:50.714Z,13.10
2023-01-07T14:50:18.969Z,12.80
2023-01-07T14:53:32.326Z,12.58
2023-01-07T14:56:40.244Z,12.87
2023-01-07T15:00:09.138Z,12.79
2023-01-07T15:03:25.973Z,12.64
2023-01-07T15:06:30.905Z,12.64
2023-01-07T15:10:00.256Z,12.40
2023-01-07T15:13:22.994Z,12.67
2023-01-07T15:16:25.194Z,12.68
2023-01-07T15:19:26.640Z,12.61
2023-01-07T15:22:40.131Z,12.46
2023-01-07T15:25:56.627Z,12.39
2023-01-07T15:29:09.092Z,12.36
2023-01-07T15:32:41.409Z,12.25
2023-01-07T15:35:44.698Z,12.14
2023-01-07T15:38:50.980Z,12.15
2023-01-07T15:41:54.561Z,11.99
2023-01-07T15:44:58.414Z,11.97
2023-01-07T15:48:11.605Z,11.84
2023-01-07T15:51:17.873Z,11.80
2023-01-07T15:54:26.845Z,11.89
2023-01-07T15:57:36.855Z,11.84
2023-01-07T16:00:38.673Z,11.77
2023-01-07T16:03:42.166Z,11.67
2023-01-07T16:06:46.061Z,11.48
2023-01-07T16:09:47.779Z,11.72
2023-01-07T16:12:52.375Z,11.70
2023-01-07T16:15:56.157Z,11.74
2023-01-07T16:19:02.472Z,11.76
2023-01-07T16:22:04.466Z,11.67
2023-01-07T16:25:13.527Z,11.69
2023-01-07T16:28:22.363Z,11.75
2023-01-07T16:31:27.687Z,11.71
2023-01-07T16:34:30.304Z,11.72
2023-01-07T16:37:32.947Z,11.65
2023-01-07T16:40:36.935Z,11.72
2023-01-07T16:43:38.295Z,11.83
2023-01-07T16:46:42.656Z,11.68
2023-01-07T16:49:45.365Z,11.76
2023-01-07T16:52:51.067Z,11.50
2023-01-07T16:56:13.335Z,11.69
2023-01-07T16:59:15.879Z,11.72
2023-01-07T17:02:48.573Z,11.61
2023-01-07T17:05:57.765Z,11.62
2023-01-07T17:08:59.314Z,11.52
2023-01-07T17:12:02.308Z,11.48
2023-01-07T17:15:32.363Z,11.39
2023-01-07T17:18:34.827Z,11.27
2023-01-07T17:21:41.123Z,11.10
2023-01-07T17:24:46.909Z,11.49
2023-01-07T17:27:53.236Z,11.49
2023-01-07T17:30:54.895Z,11.25
2023-01-07T17:33:56.363Z,11.53
2023-01-07T17:36:57.894Z,11.56
2023-01-07T17:39:59.472Z,11.44
2023-01-07T17:43:19.265Z,11.23
2023-01-07T17:46:20.753Z,11.67
2023-01-07T17:49:22.264Z,11.53
2023-01-07T17:52:23.856Z,11.58
2023-01-07T17:55:27.777Z,11.64
2023-01-07T17:58:31.749Z,11.70
2023-01-07T18:01:33.316Z,11.64
2023-01-07T18:04:34.806Z,11.64
2023-01-07T18:07:36.215Z,11.56
2023-01-07T18:10:56.786Z,11.43
2023-01-07T18:13:58.357Z,11.25
2023-01-07T18:16:59.847Z,10.99
2023-01-07T18:20:01.324Z,11.08
2023-01-07T18:23:02.726Z,11.30
2023-01-07T18:26:07.658Z,11.33
2023-01-07T18:29:11.059Z,11.39
2023-01-07T18:32:12.459Z,11.47
2023-01-07T18:35:14.511Z,11.40
2023-01-07T18:38:16.545Z,11.22
2023-01-07T18:41:18.007Z,11.35
2023-01-07T18:44:21.333Z,11.35
2023-01-07T18:47:22.908Z,11.23
2023-01-07T18:50:24.295Z,11.13
2023-01-07T18:53:27.190Z,11.12
2023-01-07T18:56:28.621Z,11.51
2023-01-07T18:59:30.026Z,11.53
2023-01-07T19:02:31.437Z,11.42
2023-01-07T19:05:32.854Z,11.43
2023-01-07T19:08:34.381Z,11.43
2023-01-07T19:11:38.132Z,11.34
2023-01-07T19:14:40.312Z,11.29
2023-01-07T19:17:41.868Z,11.48
2023-01-07T19:20:43.373Z,11.20
2023-01-07T19:23:47.114Z,11.19
2023-01-07T19:26:48.676Z,11.30
2023-01-07T19:29:50.126Z,11.31
2023-01-07T19:32:53.023Z,11.45
2023-01-07T19:36:07.612Z,11.48
2023-01-07T19:39:13.176Z,11.35
2023-01-07T19:42:14.782Z,11.28
2023-01-07T19:45:16.341Z,11.27
2023-01-07T19:48:19.480Z,11.31
2023-01-07T19:51:21.019Z,11.25
2023-01-07T19:54:22.418Z,11.04
2023-01-07T19:57:23.807Z,11.19
2023-01-07T20:00:25.296Z,11.17
2023-01-07T20:03:26.686Z,11.15
2023-01-07T20:06:29.820Z,11.21
2023-01-07T20:09:31.313Z,10.99
2023-01-07T20:12:33.028Z,10.99
2023-01-07T20:15:34.500Z,11.05
2023-01-07T20:18:45.177Z,10.92
2023-01-07T20:21:46.681Z,11.03
2023-01-07T20:24:48.191Z,11.00
2023-01-07T20:27:49.741Z,10.93
2023-01-07T20:30:51.146Z,10.98
2023-01-07T20:33:55.415Z,10.70
2023-01-07T20:36:56.892Z,11.04
2023-01-07T20:39:58.305Z,10.93
2023-01-07T20:42:59.718Z,10.79
2023-01-07T20:46:02.942Z,10.76
2023-01-07T20:49:04.534Z,10.75
2023-01-07T20:52:06.024Z,10.78
2023-01-07T20:55:07.962Z,10.69
2023-01-07T20:58:09.621Z,10.67
2023-01-07T21:01:13.934Z,10.58
2023-01-07T21:04:15.445Z,10.75
2023-01-07T21:07:16.819Z,10.85
2023-01-07T21:10:19.200Z,11.08
2023-01-07T21:13:21.019Z,11.06
2023-01-07T21:16:23.788Z,10.93
2023-01-07T21:19:25.220Z,10.97
2023-01-07T21:22:26.634Z,11.17
2023-01-07T21:25:28.026Z,10.98
2023-01-07T21:28:29.439Z,11.05
2023-01-07T21:31:30.909Z,11.05
2023-01-07T21:34:32.434Z,11.18
2023-01-07T21:37:33.852Z,11.15
2023-01-07T21:40:35.362Z,11.25
2023-01-07T21:43:37.347Z,11.25
2023-01-07T21:46:38.989Z,10.98
2023-01-07T21:49:40.427Z,11.09
2023-01-07T21:52:42.208Z,10.96
2023-01-07T21:55:43.652Z,10.91
2023-01-07T21:58:46.110Z,10.63
2023-01-07T22:01:49.035Z,10.34
2023-01-07T22:04:50.765Z,10.09
2023-01-07T22:07:52.183Z,10.25
2023-01-07T22:10:53.804Z,9.91
2023-01-07T22:13:57.275Z,10.03
2023-01-07T22:16:58.672Z,10.11
2023-01-07T22:20:00.139Z,10.26
2023-01-07T22:23:01.658Z,10.37
2023-01-07T22:26:08.040Z,10.25
2023-01-07T22:29:09.447Z,10.31
2023-01-07T22:32:10.883Z,10.22
2023-01-07T22:35:12.325Z,10.14
2023-01-07T22:38:14.430Z,10.27
2023-01-07T22:41:15.875Z,10.22
2023-01-07T22:44:24.360Z,10.31
2023-01-07T22:47:30.463Z,10.39
2023-01-07T22:50:32.096Z,10.36
2023-01-07T22:53:33.518Z,10.44
2023-01-07T22:56:35.222Z,10.26
2023-01-07T22:59:36.876Z,10.30
2023-01-07T23:02:38.298Z,10.23
2023-01-07T23:05:39.770Z,10.29
2023-01-07T23:08:42.058Z,10.20
2023-01-07T23:11:50.383Z,10.08
2023-01-07T23:14:51.787Z,9.93
2023-01-07T23:17:54.616Z,9.78
2023-01-07T23:20:56.417Z,9.75
2023-01-07T23:23:58.973Z,9.86
2023-01-07T23:27:00.377Z,9.90
2023-01-07T23:30:01.801Z,9.95
2023-01-07T23:33:03.379Z,10.13
2023-01-07T23:36:07.305Z,10.44
2023-01-07T23:39:08.781Z,10.42
2023-01-07T23:42:10.189Z,10.13
2023-01-07T23:45:11.785Z,9.89
2023-01-07T23:48:13.214Z,9.81
2023-01-07T23:51:17.803Z,9.73
2023-01-07T23:54:19.208Z,9.63
2023-01-07T23:57:20.798Z,9.63
